sensor_id;sensor_type;location;lat;lon;timestamp;P1;durP1;ratioP1;P2;durP2;ratioP2
62123;SDS011;48110;47.532;19.078;2023-07-24T00:02:24;9.05;;;4.35;;
62123;SDS011;48110;47.532;19.078;2023-07-24T00:05:27;7.45;;;4.40;;
62123;SDS011;48110;47.532;19.078;2023-07-24T00:08:30;4.95;;;3.90;;
62123;SDS011;48110;47.532;19.078;2023-07-24T00:11:33;7.00;;;4.12;;
62123;SDS011;48110;47.532;19.078;2023-07-24T00:14:36;10.02;;;4.15;;
62123;SDS011;48110;47.532;19.078;2023-07-24T00:17:39;5.15;;;4.12;;
62123;SDS011;48110;47.532;19.078;2023-07-24T00:20:42;5.72;;;4.25;;
62123;SDS011;48110;47.532;19.078;2023-07-24T00:23:45;5.93;;;4.40;;
62123;SDS011;48110;47.532;19.078;2023-07-24T00:26:48;4.50;;;3.87;;
62123;SDS011;48110;47.532;19.078;2023-07-24T00:29:52;15.98;;;4.65;;
62123;SDS011;48110;47.532;19.078;2023-07-24T00:32:55;4.80;;;4.15;;
62123;SDS011;48110;47.532;19.078;2023-07-24T00:35:58;7.50;;;4.20;;
62123;SDS011;48110;47.532;19.078;2023-07-24T00:39:01;6.32;;;4.60;;
62123;SDS011;48110;47.532;19.078;2023-07-24T00:42:05;7.55;;;4.18;;
62123;SDS011;48110;47.532;19.078;2023-07-24T00:45:09;5.10;;;4.05;;
62123;SDS011;48110;47.532;19.078;2023-07-24T00:48:12;8.18;;;4.15;;
62123;SDS011;48110;47.532;19.078;2023-07-24T00:51:15;5.82;;;4.10;;
62123;SDS011;48110;47.532;19.078;2023-07-24T00:54:18;6.57;;;4.28;;
62123;SDS011;48110;47.532;19.078;2023-07-24T00:57:22;5.15;;;4.10;;
62123;SDS011;48110;47.532;19.078;2023-07-24T01:00:26;5.03;;;4.28;;
62123;SDS011;48110;47.532;19.078;2023-07-24T01:03:33;8.68;;;4.35;;
62123;SDS011;48110;47.532;19.078;2023-07-24T01:06:38;10.43;;;4.47;;
62123;SDS011;48110;47.532;19.078;2023-07-24T01:09:42;5.68;;;4.70;;
62123;SDS011;48110;47.532;19.078;2023-07-24T01:12:55;7.82;;;4.72;;
62123;SDS011;48110;47.532;19.078;2023-07-24T01:19:41;8.07;;;4.50;;
62123;SDS011;48110;47.532;19.078;2023-07-24T01:26:12;7.70;;;4.53;;
62123;SDS011;48110;47.532;19.078;2023-07-24T01:29:16;5.57;;;4.53;;
62123;SDS011;48110;47.532;19.078;2023-07-24T01:32:19;6.87;;;4.47;;
62123;SDS011;48110;47.532;19.078;2023-07-24T01:35:22;6.35;;;4.72;;
62123;SDS011;48110;47.532;19.078;2023-07-24T01:38:27;6.03;;;4.75;;
62123;SDS011;48110;47.532;19.078;2023-07-24T01:41:30;8.38;;;4.93;;
62123;SDS011;48110;47.532;19.078;2023-07-24T01:44:34;7.00;;;4.78;;
62123;SDS011;48110;47.532;19.078;2023-07-24T01:47:37;8.68;;;4.85;;
62123;SDS011;48110;47.532;19.078;2023-07-24T01:50:40;7.05;;;4.72;;
62123;SDS011;48110;47.532;19.078;2023-07-24T01:53:43;6.95;;;4.97;;
62123;SDS011;48110;47.532;19.078;2023-07-24T01:56:46;6.25;;;4.93;;
62123;SDS011;48110;47.532;19.078;2023-07-24T01:59:49;7.18;;;4.62;;
62123;SDS011;48110;47.532;19.078;2023-07-24T02:02:52;6.28;;;4.80;;
62123;SDS011;48110;47.532;19.078;2023-07-24T02:05:56;6.30;;;5.22;;
62123;SDS011;48110;47.532;19.078;2023-07-24T02:08:59;7.87;;;5.00;;
62123;SDS011;48110;47.532;19.078;2023-07-24T02:12:02;6.45;;;5.10;;
62123;SDS011;48110;47.532;19.078;2023-07-24T02:15:05;6.72;;;4.93;;
62123;SDS011;48110;47.532;19.078;2023-07-24T02:18:10;8.15;;;5.05;;
62123;SDS011;48110;47.532;19.078;2023-07-24T02:21:13;8.25;;;4.90;;
62123;SDS011;48110;47.532;19.078;2023-07-24T02:24:16;6.10;;;4.90;;
62123;SDS011;48110;47.532;19.078;2023-07-24T02:27:26;6.20;;;4.82;;
62123;SDS011;48110;47.532;19.078;2023-07-24T02:30:32;8.45;;;5.07;;
62123;SDS011;48110;47.532;19.078;2023-07-24T02:33:35;6.20;;;4.75;;
62123;SDS011;48110;47.532;19.078;2023-07-24T02:36:38;6.30;;;5.07;;
62123;SDS011;48110;47.532;19.078;2023-07-24T02:39:44;7.28;;;4.65;;
62123;SDS011;48110;47.532;19.078;2023-07-24T02:42:47;9.70;;;4.95;;
62123;SDS011;48110;47.532;19.078;2023-07-24T02:45:50;7.70;;;4.87;;
62123;SDS011;48110;47.532;19.078;2023-07-24T02:48:53;6.07;;;4.75;;
62123;SDS011;48110;47.532;19.078;2023-07-24T02:51:56;8.82;;;5.07;;
62123;SDS011;48110;47.532;19.078;2023-07-24T02:54:59;6.53;;;5.15;;
62123;SDS011;48110;47.532;19.078;2023-07-24T02:58:02;9.00;;;4.97;;
62123;SDS011;48110;47.532;19.078;2023-07-24T03:01:06;9.90;;;5.00;;
62123;SDS011;48110;47.532;19.078;2023-07-24T03:04:10;6.87;;;5.18;;
62123;SDS011;48110;47.532;19.078;2023-07-24T03:07:12;7.53;;;5.47;;
62123;SDS011;48110;47.532;19.078;2023-07-24T03:10:15;7.70;;;5.35;;
62123;SDS011;48110;47.532;19.078;2023-07-24T03:13:19;12.65;;;5.97;;
62123;SDS011;48110;47.532;19.078;2023-07-24T03:16:22;7.45;;;5.57;;
62123;SDS011;48110;47.532;19.078;2023-07-24T03:19:25;10.90;;;6.12;;
62123;SDS011;48110;47.532;19.078;2023-07-24T03:22:28;7.87;;;5.60;;
62123;SDS011;48110;47.532;19.078;2023-07-24T03:25:31;6.53;;;5.22;;
62123;SDS011;48110;47.532;19.078;2023-07-24T03:28:38;10.55;;;5.75;;
62123;SDS011;48110;47.532;19.078;2023-07-24T03:31:41;13.57;;;5.82;;
62123;SDS011;48110;47.532;19.078;2023-07-24T03:34:44;9.35;;;5.65;;
62123;SDS011;48110;47.532;19.078;2023-07-24T03:37:47;8.43;;;6.10;;
62123;SDS011;48110;47.532;19.078;2023-07-24T03:40:49;8.68;;;5.70;;
62123;SDS011;48110;47.532;19.078;2023-07-24T03:43:53;7.78;;;5.70;;
62123;SDS011;48110;47.532;19.078;2023-07-24T03:46:55;8.55;;;6.00;;
62123;SDS011;48110;47.532;19.078;2023-07-24T03:49:58;11.00;;;6.43;;
62123;SDS011;48110;47.532;19.078;2023-07-24T03:53:01;8.50;;;6.12;;
62123;SDS011;48110;47.532;19.078;2023-07-24T03:56:04;9.40;;;6.68;;
62123;SDS011;48110;47.532;19.078;2023-07-24T03:59:07;15.05;;;6.53;;
62123;SDS011;48110;47.532;19.078;2023-07-24T04:02:10;12.45;;;6.90;;
62123;SDS011;48110;47.532;19.078;2023-07-24T04:05:13;10.07;;;6.70;;
62123;SDS011;48110;47.532;19.078;2023-07-24T04:08:16;8.27;;;6.32;;
62123;SDS011;48110;47.532;19.078;2023-07-24T04:11:19;12.85;;;6.53;;
62123;SDS011;48110;47.532;19.078;2023-07-24T04:14:22;8.60;;;6.90;;
62123;SDS011;48110;47.532;19.078;2023-07-24T04:17:25;7.95;;;6.53;;
62123;SDS011;48110;47.532;19.078;2023-07-24T04:20:28;10.95;;;6.70;;
62123;SDS011;48110;47.532;19.078;2023-07-24T04:23:31;12.00;;;6.72;;
62123;SDS011;48110;47.532;19.078;2023-07-24T04:26:34;13.95;;;7.18;;
62123;SDS011;48110;47.532;19.078;2023-07-24T04:29:39;10.20;;;6.53;;
62123;SDS011;48110;47.532;19.078;2023-07-24T04:32:42;12.02;;;6.93;;
62123;SDS011;48110;47.532;19.078;2023-07-24T04:35:48;12.27;;;7.10;;
62123;SDS011;48110;47.532;19.078;2023-07-24T04:38:52;12.23;;;7.00;;
62123;SDS011;48110;47.532;19.078;2023-07-24T04:41:55;13.23;;;6.70;;
62123;SDS011;48110;47.532;19.078;2023-07-24T04:44:57;9.90;;;6.80;;
62123;SDS011;48110;47.532;19.078;2023-07-24T04:48:01;12.80;;;7.20;;
62123;SDS011;48110;47.532;19.078;2023-07-24T04:51:04;16.20;;;6.87;;
62123;SDS011;48110;47.532;19.078;2023-07-24T04:54:07;10.13;;;6.93;;
62123;SDS011;48110;47.532;19.078;2023-07-24T04:57:10;12.80;;;7.30;;
62123;SDS011;48110;47.532;19.078;2023-07-24T05:00:13;17.23;;;7.47;;
62123;SDS011;48110;47.532;19.078;2023-07-24T05:03:16;13.85;;;7.53;;
62123;SDS011;48110;47.532;19.078;2023-07-24T05:06:20;14.45;;;7.75;;
62123;SDS011;48110;47.532;19.078;2023-07-24T05:09:22;11.12;;;7.40;;
62123;SDS011;48110;47.532;19.078;2023-07-24T05:12:25;13.10;;;7.32;;
62123;SDS011;48110;47.532;19.078;2023-07-24T05:15:28;11.38;;;7.28;;
62123;SDS011;48110;47.532;19.078;2023-07-24T05:18:32;11.18;;;7.47;;
62123;SDS011;48110;47.532;19.078;2023-07-24T05:21:34;11.40;;;7.55;;
62123;SDS011;48110;47.532;19.078;2023-07-24T05:24:37;9.40;;;7.57;;
62123;SDS011;48110;47.532;19.078;2023-07-24T05:27:40;8.50;;;7.22;;
62123;SDS011;48110;47.532;19.078;2023-07-24T05:30:47;12.32;;;7.20;;
62123;SDS011;48110;47.532;19.078;2023-07-24T05:33:50;11.35;;;8.95;;
62123;SDS011;48110;47.532;19.078;2023-07-24T05:36:53;12.27;;;7.60;;
62123;SDS011;48110;47.532;19.078;2023-07-24T05:39:56;7.95;;;6.65;;
62123;SDS011;48110;47.532;19.078;2023-07-24T05:42:59;10.90;;;6.95;;
62123;SDS011;48110;47.532;19.078;2023-07-24T05:46:02;11.07;;;7.35;;
62123;SDS011;48110;47.532;19.078;2023-07-24T05:49:05;11.40;;;7.03;;
62123;SDS011;48110;47.532;19.078;2023-07-24T05:52:08;13.93;;;7.47;;
62123;SDS011;48110;47.532;19.078;2023-07-24T05:55:11;14.98;;;7.35;;
62123;SDS011;48110;47.532;19.078;2023-07-24T05:58:14;12.10;;;7.37;;
62123;SDS011;48110;47.532;19.078;2023-07-24T06:01:17;10.07;;;6.82;;
62123;SDS011;48110;47.532;19.078;2023-07-24T06:04:21;17.55;;;7.35;;
62123;SDS011;48110;47.532;19.078;2023-07-24T06:07:24;13.40;;;7.72;;
62123;SDS011;48110;47.532;19.078;2023-07-24T06:10:27;13.38;;;7.85;;
62123;SDS011;48110;47.532;19.078;2023-07-24T06:13:29;12.13;;;8.23;;
62123;SDS011;48110;47.532;19.078;2023-07-24T06:16:33;13.62;;;7.53;;
62123;SDS011;48110;47.532;19.078;2023-07-24T06:19:36;12.02;;;7.45;;
62123;SDS011;48110;47.532;19.078;2023-07-24T06:22:39;11.15;;;7.37;;
62123;SDS011;48110;47.532;19.078;2023-07-24T06:25:42;11.45;;;7.50;;
62123;SDS011;48110;47.532;19.078;2023-07-24T06:28:45;13.18;;;7.60;;
62123;SDS011;48110;47.532;19.078;2023-07-24T06:31:48;7.95;;;6.60;;
62123;SDS011;48110;47.532;19.078;2023-07-24T06:34:52;12.32;;;7.53;;
62123;SDS011;48110;47.532;19.078;2023-07-24T06:37:57;11.00;;;7.78;;
62123;SDS011;48110;47.532;19.078;2023-07-24T06:41:01;13.90;;;7.45;;
62123;SDS011;48110;47.532;19.078;2023-07-24T06:44:03;13.88;;;8.10;;
62123;SDS011;48110;47.532;19.078;2023-07-24T06:47:07;11.12;;;7.95;;
62123;SDS011;48110;47.532;19.078;2023-07-24T06:50:09;14.00;;;7.87;;
62123;SDS011;48110;47.532;19.078;2023-07-24T06:53:13;15.23;;;7.72;;
62123;SDS011;48110;47.532;19.078;2023-07-24T06:56:15;15.77;;;7.90;;
62123;SDS011;48110;47.532;19.078;2023-07-24T06:59:19;11.43;;;7.35;;
62123;SDS011;48110;47.532;19.078;2023-07-24T07:02:21;11.98;;;6.87;;
62123;SDS011;48110;47.532;19.078;2023-07-24T07:05:25;13.77;;;7.28;;
62123;SDS011;48110;47.532;19.078;2023-07-24T07:08:28;13.35;;;7.60;;
62123;SDS011;48110;47.532;19.078;2023-07-24T07:11:32;14.23;;;7.53;;
62123;SDS011;48110;47.532;19.078;2023-07-24T07:14:35;11.38;;;6.87;;
62123;SDS011;48110;47.532;19.078;2023-07-24T07:17:38;14.15;;;7.10;;
62123;SDS011;48110;47.532;19.078;2023-07-24T07:20:48;13.93;;;7.00;;
62123;SDS011;48110;47.532;19.078;2023-07-24T07:23:53;13.35;;;7.10;;
62123;SDS011;48110;47.532;19.078;2023-07-24T07:26:57;15.15;;;7.57;;
62123;SDS011;48110;47.532;19.078;2023-07-24T07:30:00;12.52;;;6.97;;
62123;SDS011;48110;47.532;19.078;2023-07-24T07:33:02;12.57;;;7.12;;
62123;SDS011;48110;47.532;19.078;2023-07-24T07:36:08;12.95;;;7.03;;
62123;SDS011;48110;47.532;19.078;2023-07-24T07:39:11;13.82;;;7.00;;
62123;SDS011;48110;47.532;19.078;2023-07-24T07:42:14;12.95;;;6.57;;
62123;SDS011;48110;47.532;19.078;2023-07-24T07:45:20;13.30;;;6.32;;
62123;SDS011;48110;47.532;19.078;2023-07-24T07:48:24;12.35;;;6.57;;
62123;SDS011;48110;47.532;19.078;2023-07-24T07:51:27;12.07;;;6.30;;
62123;SDS011;48110;47.532;19.078;2023-07-24T07:54:30;14.00;;;6.30;;
62123;SDS011;48110;47.532;19.078;2023-07-24T07:57:36;11.77;;;6.05;;
62123;SDS011;48110;47.532;19.078;2023-07-24T08:00:40;10.60;;;6.30;;
62123;SDS011;48110;47.532;19.078;2023-07-24T08:03:43;13.40;;;5.72;;
62123;SDS011;48110;47.532;19.078;2023-07-24T08:06:46;9.40;;;5.70;;
62123;SDS011;48110;47.532;19.078;2023-07-24T08:09:49;12.18;;;6.68;;
62123;SDS011;48110;47.532;19.078;2023-07-24T08:12:52;9.77;;;6.03;;
62123;SDS011;48110;47.532;19.078;2023-07-24T08:15:58;15.07;;;6.32;;
62123;SDS011;48110;47.532;19.078;2023-07-24T08:19:01;10.57;;;5.87;;
62123;SDS011;48110;47.532;19.078;2023-07-24T08:22:05;11.18;;;6.12;;
62123;SDS011;48110;47.532;19.078;2023-07-24T08:25:07;10.48;;;6.07;;
62123;SDS011;48110;47.532;19.078;2023-07-24T08:28:11;13.75;;;6.57;;
62123;SDS011;48110;47.532;19.078;2023-07-24T08:31:13;13.77;;;6.18;;
62123;SDS011;48110;47.532;19.078;2023-07-24T08:34:17;9.80;;;6.25;;
62123;SDS011;48110;47.532;19.078;2023-07-24T08:37:19;14.35;;;6.72;;
62123;SDS011;48110;47.532;19.078;2023-07-24T08:40:22;15.80;;;6.37;;
62123;SDS011;48110;47.532;19.078;2023-07-24T08:43:25;13.02;;;5.93;;
62123;SDS011;48110;47.532;19.078;2023-07-24T08:46:29;12.68;;;6.30;;
62123;SDS011;48110;47.532;19.078;2023-07-24T08:49:33;13.07;;;5.70;;
62123;SDS011;48110;47.532;19.078;2023-07-24T08:52:40;12.55;;;6.40;;
62123;SDS011;48110;47.532;19.078;2023-07-24T08:55:44;8.80;;;6.40;;
62123;SDS011;48110;47.532;19.078;2023-07-24T08:58:51;12.02;;;6.40;;
62123;SDS011;48110;47.532;19.078;2023-07-24T09:01:53;10.27;;;6.25;;
62123;SDS011;48110;47.532;19.078;2023-07-24T09:04:57;15.90;;;6.43;;
62123;SDS011;48110;47.532;19.078;2023-07-24T09:08:00;12.75;;;5.97;;
62123;SDS011;48110;47.532;19.078;2023-07-24T09:11:03;14.77;;;6.55;;
62123;SDS011;48110;47.532;19.078;2023-07-24T09:14:07;14.23;;;6.78;;
62123;SDS011;48110;47.532;19.078;2023-07-24T09:17:21;10.43;;;6.40;;
62123;SDS011;48110;47.532;19.078;2023-07-24T09:20:24;10.18;;;6.68;;
62123;SDS011;48110;47.532;19.078;2023-07-24T09:23:34;9.15;;;6.47;;
62123;SDS011;48110;47.532;19.078;2023-07-24T09:26:49;12.73;;;7.00;;
62123;SDS011;48110;47.532;19.078;2023-07-24T09:30:00;16.87;;;7.28;;
62123;SDS011;48110;47.532;19.078;2023-07-24T09:33:03;11.30;;;6.72;;
62123;SDS011;48110;47.532;19.078;2023-07-24T09:36:08;11.95;;;7.12;;
62123;SDS011;48110;47.532;19.078;2023-07-24T09:39:11;12.27;;;6.82;;
62123;SDS011;48110;47.532;19.078;2023-07-24T09:42:14;15.73;;;7.70;;
62123;SDS011;48110;47.532;19.078;2023-07-24T09:45:18;11.02;;;7.15;;
62123;SDS011;48110;47.532;19.078;2023-07-24T09:48:26;12.60;;;7.07;;
62123;SDS011;48110;47.532;19.078;2023-07-24T09:51:32;12.20;;;7.03;;
62123;SDS011;48110;47.532;19.078;2023-07-24T09:54:37;22.85;;;7.60;;
62123;SDS011;48110;47.532;19.078;2023-07-24T09:57:50;16.60;;;7.07;;
62123;SDS011;48110;47.532;19.078;2023-07-24T10:00:56;12.18;;;7.05;;
62123;SDS011;48110;47.532;19.078;2023-07-24T10:04:00;16.08;;;8.25;;
62123;SDS011;48110;47.532;19.078;2023-07-24T10:07:04;12.73;;;7.57;;
62123;SDS011;48110;47.532;19.078;2023-07-24T10:10:08;10.45;;;7.05;;
62123;SDS011;48110;47.532;19.078;2023-07-24T10:13:12;15.32;;;7.60;;
62123;SDS011;48110;47.532;19.078;2023-07-24T10:16:17;10.45;;;7.45;;
62123;SDS011;48110;47.532;19.078;2023-07-24T10:19:23;13.02;;;7.97;;
62123;SDS011;48110;47.532;19.078;2023-07-24T10:22:26;12.07;;;8.32;;
62123;SDS011;48110;47.532;19.078;2023-07-24T10:25:31;16.05;;;8.45;;
62123;SDS011;48110;47.532;19.078;2023-07-24T10:28:36;12.70;;;8.95;;
62123;SDS011;48110;47.532;19.078;2023-07-24T10:31:51;13.18;;;8.45;;
62123;SDS011;48110;47.532;19.078;2023-07-24T10:35:00;13.68;;;8.80;;
62123;SDS011;48110;47.532;19.078;2023-07-24T10:38:12;14.23;;;9.10;;
62123;SDS011;48110;47.532;19.078;2023-07-24T10:41:18;12.13;;;9.07;;
62123;SDS011;48110;47.532;19.078;2023-07-24T10:44:29;11.38;;;8.32;;
62123;SDS011;48110;47.532;19.078;2023-07-24T10:47:34;12.63;;;8.25;;
62123;SDS011;48110;47.532;19.078;2023-07-24T10:50:40;15.18;;;8.57;;
62123;SDS011;48110;47.532;19.078;2023-07-24T10:53:46;17.17;;;9.05;;
62123;SDS011;48110;47.532;19.078;2023-07-24T10:56:55;14.20;;;9.15;;
62123;SDS011;48110;47.532;19.078;2023-07-24T11:00:00;16.58;;;8.95;;
62123;SDS011;48110;47.532;19.078;2023-07-24T11:03:08;14.80;;;8.85;;
62123;SDS011;48110;47.532;19.078;2023-07-24T11:06:19;14.13;;;7.82;;
62123;SDS011;48110;47.532;19.078;2023-07-24T11:09:33;12.55;;;8.30;;
62123;SDS011;48110;47.532;19.078;2023-07-24T11:12:38;12.27;;;7.97;;
62123;SDS011;48110;47.532;19.078;2023-07-24T11:15:41;11.98;;;7.85;;
62123;SDS011;48110;47.532;19.078;2023-07-24T11:18:45;15.90;;;8.30;;
62123;SDS011;48110;47.532;19.078;2023-07-24T11:21:56;16.02;;;8.23;;
62123;SDS011;48110;47.532;19.078;2023-07-24T11:25:00;12.23;;;8.00;;
62123;SDS011;48110;47.532;19.078;2023-07-24T11:28:05;13.77;;;8.23;;
62123;SDS011;48110;47.532;19.078;2023-07-24T11:31:09;14.73;;;8.05;;
62123;SDS011;48110;47.532;19.078;2023-07-24T11:34:12;14.57;;;7.68;;
62123;SDS011;48110;47.532;19.078;2023-07-24T11:37:15;12.80;;;7.80;;
62123;SDS011;48110;47.532;19.078;2023-07-24T11:40:19;15.15;;;7.87;;
62123;SDS011;48110;47.532;19.078;2023-07-24T11:43:23;14.30;;;7.55;;
62123;SDS011;48110;47.532;19.078;2023-07-24T11:46:27;11.25;;;7.37;;
62123;SDS011;48110;47.532;19.078;2023-07-24T11:49:32;16.23;;;8.20;;
62123;SDS011;48110;47.532;19.078;2023-07-24T11:52:39;14.52;;;7.32;;
62123;SDS011;48110;47.532;19.078;2023-07-24T11:55:49;21.30;;;7.53;;
62123;SDS011;48110;47.532;19.078;2023-07-24T11:58:53;10.95;;;7.75;;
62123;SDS011;48110;47.532;19.078;2023-07-24T12:01:56;11.73;;;7.40;;
62123;SDS011;48110;47.532;19.078;2023-07-24T12:05:00;11.75;;;6.80;;
62123;SDS011;48110;47.532;19.078;2023-07-24T12:08:03;12.55;;;6.95;;
62123;SDS011;48110;47.532;19.078;2023-07-24T12:11:15;13.00;;;7.20;;
62123;SDS011;48110;47.532;19.078;2023-07-24T12:14:19;12.70;;;7.32;;
62123;SDS011;48110;47.532;19.078;2023-07-24T12:17:22;15.07;;;7.10;;
62123;SDS011;48110;47.532;19.078;2023-07-24T12:20:25;13.05;;;7.60;;
62123;SDS011;48110;47.532;19.078;2023-07-24T12:23:29;12.43;;;7.60;;
62123;SDS011;48110;47.532;19.078;2023-07-24T12:26:31;17.42;;;7.55;;
62123;SDS011;48110;47.532;19.078;2023-07-24T12:29:34;13.35;;;7.22;;
62123;SDS011;48110;47.532;19.078;2023-07-24T12:32:37;11.90;;;7.22;;
62123;SDS011;48110;47.532;19.078;2023-07-24T12:35:40;12.80;;;7.05;;
62123;SDS011;48110;47.532;19.078;2023-07-24T12:38:43;11.90;;;7.30;;
62123;SDS011;48110;47.532;19.078;2023-07-24T12:41:46;15.20;;;6.82;;
62123;SDS011;48110;47.532;19.078;2023-07-24T12:44:49;12.55;;;7.05;;
62123;SDS011;48110;47.532;19.078;2023-07-24T12:47:53;10.40;;;6.97;;
62123;SDS011;48110;47.532;19.078;2023-07-24T12:50:57;13.80;;;6.75;;
62123;SDS011;48110;47.532;19.078;2023-07-24T12:54:02;12.30;;;7.07;;
62123;SDS011;48110;47.532;19.078;2023-07-24T12:57:25;10.63;;;6.40;;
62123;SDS011;48110;47.532;19.078;2023-07-24T13:00:29;16.02;;;7.20;;
62123;SDS011;48110;47.532;19.078;2023-07-24T13:03:35;12.25;;;6.65;;
62123;SDS011;48110;47.532;19.078;2023-07-24T13:06:38;12.60;;;6.32;;
62123;SDS011;48110;47.532;19.078;2023-07-24T13:09:41;10.43;;;5.87;;
62123;SDS011;48110;47.532;19.078;2023-07-24T13:12:44;14.10;;;6.20;;
62123;SDS011;48110;47.532;19.078;2023-07-24T13:15:47;9.48;;;6.25;;
62123;SDS011;48110;47.532;19.078;2023-07-24T13:18:51;11.02;;;6.43;;
62123;SDS011;48110;47.532;19.078;2023-07-24T13:21:54;15.73;;;6.40;;
62123;SDS011;48110;47.532;19.078;2023-07-24T13:24:57;13.50;;;6.75;;
62123;SDS011;48110;47.532;19.078;2023-07-24T13:28:00;20.62;;;6.55;;
62123;SDS011;48110;47.532;19.078;2023-07-24T13:31:19;17.20;;;6.87;;
62123;SDS011;48110;47.532;19.078;2023-07-24T13:34:23;13.95;;;7.10;;
62123;SDS011;48110;47.532;19.078;2023-07-24T13:37:27;15.45;;;7.55;;
62123;SDS011;48110;47.532;19.078;2023-07-24T13:40:29;11.38;;;7.43;;
62123;SDS011;48110;47.532;19.078;2023-07-24T13:43:33;12.57;;;7.55;;
62123;SDS011;48110;47.532;19.078;2023-07-24T13:46:36;15.75;;;7.72;;
62123;SDS011;48110;47.532;19.078;2023-07-24T13:49:42;20.05;;;7.65;;
62123;SDS011;48110;47.532;19.078;2023-07-24T13:52:45;18.80;;;9.15;;
62123;SDS011;48110;47.532;19.078;2023-07-24T13:55:48;17.05;;;9.25;;
62123;SDS011;48110;47.532;19.078;2023-07-24T13:58:51;17.17;;;9.55;;
62123;SDS011;48110;47.532;19.078;2023-07-24T14:01:54;14.98;;;9.13;;
62123;SDS011;48110;47.532;19.078;2023-07-24T14:04:58;29.75;;;11.10;;
62123;SDS011;48110;47.532;19.078;2023-07-24T14:08:00;17.52;;;9.55;;
62123;SDS011;48110;47.532;19.078;2023-07-24T14:11:03;17.37;;;10.63;;
62123;SDS011;48110;47.532;19.078;2023-07-24T14:14:06;16.27;;;10.10;;
62123;SDS011;48110;47.532;19.078;2023-07-24T14:17:10;17.70;;;11.18;;
62123;SDS011;48110;47.532;19.078;2023-07-24T14:20:13;19.15;;;11.23;;
62123;SDS011;48110;47.532;19.078;2023-07-24T14:23:16;18.25;;;11.05;;
62123;SDS011;48110;47.532;19.078;2023-07-24T14:26:19;19.05;;;10.70;;
62123;SDS011;48110;47.532;19.078;2023-07-24T14:29:22;17.35;;;10.55;;
62123;SDS011;48110;47.532;19.078;2023-07-24T14:32:25;18.87;;;10.63;;
62123;SDS011;48110;47.532;19.078;2023-07-24T14:35:28;18.67;;;10.85;;
62123;SDS011;48110;47.532;19.078;2023-07-24T14:38:31;17.95;;;11.00;;
62123;SDS011;48110;47.532;19.078;2023-07-24T14:41:34;15.85;;;10.60;;
62123;SDS011;48110;47.532;19.078;2023-07-24T14:44:37;16.95;;;10.10;;
62123;SDS011;48110;47.532;19.078;2023-07-24T14:47:41;23.83;;;10.35;;
62123;SDS011;48110;47.532;19.078;2023-07-24T14:50:43;20.00;;;10.27;;
62123;SDS011;48110;47.532;19.078;2023-07-24T14:53:47;15.93;;;9.85;;
62123;SDS011;48110;47.532;19.078;2023-07-24T14:56:50;18.33;;;10.75;;
62123;SDS011;48110;47.532;19.078;2023-07-24T15:00:03;19.48;;;11.15;;
62123;SDS011;48110;47.532;19.078;2023-07-24T15:03:06;29.10;;;10.68;;
62123;SDS011;48110;47.532;19.078;2023-07-24T15:06:09;29.42;;;10.57;;
62123;SDS011;48110;47.532;19.078;2023-07-24T15:09:12;20.00;;;10.60;;
62123;SDS011;48110;47.532;19.078;2023-07-24T15:12:15;18.42;;;10.52;;
62123;SDS011;48110;47.532;19.078;2023-07-24T15:15:18;16.45;;;10.18;;
62123;SDS011;48110;47.532;19.078;2023-07-24T15:18:21;20.70;;;10.48;;
62123;SDS011;48110;47.532;19.078;2023-07-24T15:21:26;23.35;;;10.82;;
62123;SDS011;48110;47.532;19.078;2023-07-24T15:24:30;19.10;;;10.38;;
62123;SDS011;48110;47.532;19.078;2023-07-24T15:27:33;19.90;;;9.75;;
62123;SDS011;48110;47.532;19.078;2023-07-24T15:30:36;18.92;;;10.27;;
62123;SDS011;48110;47.532;19.078;2023-07-24T15:33:39;21.12;;;10.10;;
62123;SDS011;48110;47.532;19.078;2023-07-24T15:36:42;15.00;;;9.75;;
62123;SDS011;48110;47.532;19.078;2023-07-24T15:39:44;15.82;;;9.93;;
62123;SDS011;48110;47.532;19.078;2023-07-24T15:42:47;15.73;;;9.95;;
62123;SDS011;48110;47.532;19.078;2023-07-24T15:45:50;19.37;;;10.65;;
62123;SDS011;48110;47.532;19.078;2023-07-24T15:48:54;20.48;;;11.10;;
62123;SDS011;48110;47.532;19.078;2023-07-24T15:51:58;18.25;;;10.27;;
62123;SDS011;48110;47.532;19.078;2023-07-24T15:55:01;20.70;;;10.52;;
62123;SDS011;48110;47.532;19.078;2023-07-24T15:58:04;20.37;;;10.73;;
62123;SDS011;48110;47.532;19.078;2023-07-24T16:01:07;27.02;;;11.12;;
62123;SDS011;48110;47.532;19.078;2023-07-24T16:04:10;22.23;;;11.52;;
62123;SDS011;48110;47.532;19.078;2023-07-24T16:07:13;21.45;;;10.98;;
62123;SDS011;48110;47.532;19.078;2023-07-24T16:10:16;20.02;;;10.50;;
62123;SDS011;48110;47.532;19.078;2023-07-24T16:13:19;22.87;;;10.38;;
62123;SDS011;48110;47.532;19.078;2023-07-24T16:16:22;25.55;;;10.80;;
62123;SDS011;48110;47.532;19.078;2023-07-24T16:19:25;17.45;;;10.40;;
62123;SDS011;48110;47.532;19.078;2023-07-24T16:22:28;23.42;;;10.75;;
62123;SDS011;48110;47.532;19.078;2023-07-24T16:25:31;20.73;;;10.40;;
62123;SDS011;48110;47.532;19.078;2023-07-24T16:28:34;19.05;;;11.00;;
62123;SDS011;48110;47.532;19.078;2023-07-24T16:31:37;20.40;;;11.25;;
62123;SDS011;48110;47.532;19.078;2023-07-24T16:34:42;17.40;;;10.77;;
62123;SDS011;48110;47.532;19.078;2023-07-24T16:37:45;16.65;;;10.38;;
62123;SDS011;48110;47.532;19.078;2023-07-24T16:40:48;22.55;;;10.55;;
62123;SDS011;48110;47.532;19.078;2023-07-24T16:43:53;25.65;;;10.80;;
62123;SDS011;48110;47.532;19.078;2023-07-24T16:46:56;15.77;;;10.05;;
62123;SDS011;48110;47.532;19.078;2023-07-24T16:50:02;16.67;;;10.10;;
62123;SDS011;48110;47.532;19.078;2023-07-24T16:53:05;19.75;;;9.82;;
62123;SDS011;48110;47.532;19.078;2023-07-24T16:56:11;23.00;;;10.05;;
62123;SDS011;48110;47.532;19.078;2023-07-24T16:59:14;16.23;;;9.70;;
62123;SDS011;48110;47.532;19.078;2023-07-24T17:02:16;25.23;;;9.80;;
62123;SDS011;48110;47.532;19.078;2023-07-24T17:05:19;15.75;;;9.68;;
62123;SDS011;48110;47.532;19.078;2023-07-24T17:08:22;18.52;;;9.45;;
62123;SDS011;48110;47.532;19.078;2023-07-24T17:11:25;22.48;;;9.43;;
62123;SDS011;48110;47.532;19.078;2023-07-24T17:14:28;19.27;;;10.07;;
62123;SDS011;48110;47.532;19.078;2023-07-24T17:17:31;17.17;;;9.77;;
62123;SDS011;48110;47.532;19.078;2023-07-24T17:20:34;15.40;;;9.00;;
62123;SDS011;48110;47.532;19.078;2023-07-24T17:23:37;13.68;;;9.05;;
62123;SDS011;48110;47.532;19.078;2023-07-24T17:26:40;15.73;;;9.13;;
62123;SDS011;48110;47.532;19.078;2023-07-24T17:29:43;16.40;;;9.75;;
62123;SDS011;48110;47.532;19.078;2023-07-24T17:32:46;16.23;;;9.52;;
62123;SDS011;48110;47.532;19.078;2023-07-24T17:35:49;19.42;;;9.32;;
62123;SDS011;48110;47.532;19.078;2023-07-24T17:38:55;18.62;;;9.52;;
62123;SDS011;48110;47.532;19.078;2023-07-24T17:42:01;17.00;;;9.07;;
62123;SDS011;48110;47.532;19.078;2023-07-24T17:45:04;19.17;;;9.00;;
62123;SDS011;48110;47.532;19.078;2023-07-24T17:48:08;15.68;;;8.57;;
62123;SDS011;48110;47.532;19.078;2023-07-24T17:51:11;17.83;;;9.25;;
62123;SDS011;48110;47.532;19.078;2023-07-24T17:54:14;19.42;;;9.05;;
62123;SDS011;48110;47.532;19.078;2023-07-24T17:57:17;13.77;;;8.52;;
62123;SDS011;48110;47.532;19.078;2023-07-24T18:00:20;15.32;;;8.60;;
62123;SDS011;48110;47.532;19.078;2023-07-24T18:03:24;16.37;;;8.73;;
62123;SDS011;48110;47.532;19.078;2023-07-24T18:06:27;21.37;;;9.23;;